createdAt,value
2019-04-22T00:00:10.820Z,15.19
2019-04-22T00:01:16.497Z,15.06
2019-04-22T00:02:13.244Z,15.06
2019-04-22T00:03:14.211Z,15.36
2019-04-22T00:04:16.265Z,15.31
2019-04-22T00:05:18.906Z,15.36
2019-04-22T00:06:30.797Z,15.52
2019-04-22T00:07:36.233Z,15.27
2019-04-22T00:08:37.255Z,15.21
2019-04-22T00:09:38.846Z,15.06
2019-04-22T00:10:43.708Z,14.94
2019-04-22T00:11:35.493Z,14.95
2019-04-22T00:13:40.785Z,14.91
2019-04-22T00:14:28.315Z,15.11
2019-04-22T00:15:32.641Z,15.08
2019-04-22T00:16:38.817Z,14.99
2019-04-22T00:17:48.297Z,14.78
2019-04-22T00:18:50.553Z,14.75
2019-04-22T00:19:38.986Z,14.71
2019-04-22T00:20:35.408Z,14.71
2019-04-22T00:21:42.022Z,14.50
2019-04-22T00:22:32.047Z,14.42
2019-04-22T00:23:37.717Z,14.52
2019-04-22T00:24:39.128Z,14.34
2019-04-22T00:25:43.903Z,14.31
2019-04-22T00:26:39.320Z,14.34
2019-04-22T00:28:39.329Z,14.21
2019-04-22T00:29:49.882Z,14.21
2019-04-22T00:30:37.338Z,14.39
2019-04-22T00:31:38.162Z,14.20
2019-04-22T00:32:32.027Z,14.31
2019-04-22T00:33:31.349Z,14.42
2019-04-22T00:34:35.650Z,14.19
2019-04-22T00:35:35.449Z,14.21
2019-04-22T00:36:35.230Z,14.56
2019-04-22T00:37:34.745Z,14.80
2019-04-22T00:38:38.308Z,14.78
2019-04-22T00:39:51.291Z,14.52
2019-04-22T00:41:35.807Z,14.44
2019-04-22T00:42:39.178Z,14.46
2019-04-22T00:43:39.562Z,14.60
2019-04-22T00:44:43.271Z,14.34
2019-04-22T00:45:41.812Z,14.35
2019-04-22T00:46:39.674Z,14.47
2019-04-22T00:47:41.483Z,14.62
2019-04-22T00:48:32.239Z,14.68
2019-04-22T00:50:44.355Z,14.74
2019-04-22T00:51:44.828Z,14.50
2019-04-22T00:52:37.166Z,14.61
2019-04-22T00:53:36.015Z,14.61
2019-04-22T00:54:37.427Z,14.47
2019-04-22T00:55:38.112Z,14.29
2019-04-22T00:56:33.524Z,14.10
2019-04-22T00:57:35.508Z,14.34
2019-04-22T00:58:37.852Z,14.56
2019-04-22T00:59:40.436Z,14.53
2019-04-22T01:00:40.618Z,14.17
2019-04-22T01:01:37.237Z,14.19
2019-04-22T01:02:44.538Z,13.87
2019-04-22T01:03:44.822Z,13.83
2019-04-22T01:04:40.670Z,14.06
2019-04-22T01:05:38.355Z,14.01
2019-04-22T01:06:33.305Z,13.89
2019-04-22T01:07:36.933Z,13.77
2019-04-22T01:08:40.469Z,13.30
2019-04-22T01:09:38.932Z,13.27
2019-04-22T01:10:42.097Z,13.21
2019-04-22T01:11:33.489Z,13.07
2019-04-22T01:12:31.952Z,13.09
2019-04-22T01:13:30.549Z,13.12
2019-04-22T01:14:34.288Z,13.46
2019-04-22T01:15:41.963Z,13.73
2019-04-22T01:16:35.657Z,13.62
2019-04-22T01:17:36.934Z,13.51
2019-04-22T01:20:25.768Z,13.51
2019-04-22T01:21:17.778Z,13.70
2019-04-22T01:22:06.705Z,13.96
2019-04-22T01:23:05.271Z,13.70
2019-04-22T01:24:05.976Z,13.81
2019-04-22T01:25:01.938Z,13.61
2019-04-22T01:26:01.071Z,13.29
2019-04-22T01:26:57.851Z,13.15
2019-04-22T01:27:57.175Z,13.49
2019-04-22T01:28:59.553Z,13.65
2019-04-22T01:29:58.695Z,13.54
2019-04-22T01:30:51.462Z,13.61
2019-04-22T01:31:45.513Z,13.73
2019-04-22T01:32:47.246Z,13.47
2019-04-22T01:33:49.665Z,13.40
2019-04-22T01:35:00.607Z,13.22
2019-04-22T01:36:01.483Z,13.54
2019-04-22T01:37:02.972Z,13.36
2019-04-22T01:37:59.986Z,13.21
2019-04-22T01:39:06.444Z,12.97
2019-04-22T01:40:14.862Z,12.97
2019-04-22T01:41:07.156Z,12.82
2019-04-22T01:42:05.973Z,12.97
2019-04-22T01:43:07.030Z,12.71
2019-04-22T01:44:16.523Z,12.82
2019-04-22T01:45:12.429Z,12.97
2019-04-22T01:46:09.818Z,12.81
2019-04-22T01:47:10.102Z,12.69
2019-04-22T01:48:15.531Z,12.63
2019-04-22T01:49:10.363Z,12.63
2019-04-22T01:50:10.088Z,12.48
2019-04-22T01:51:02.122Z,12.69
2019-04-22T01:52:12.743Z,12.70
2019-04-22T01:54:12.942Z,12.60
2019-04-22T01:56:12.280Z,12.52
2019-04-22T01:57:03.676Z,12.41
2019-04-22T01:58:08.565Z,12.33
2019-04-22T01:58:59.052Z,12.16
2019-04-22T02:00:00.452Z,12.16
2019-04-22T02:01:09.797Z,12.15
2019-04-22T02:02:10.561Z,12.12
2019-04-22T02:03:12.825Z,11.83
2019-04-22T02:04:08.875Z,11.85
2019-04-22T02:05:16.064Z,11.93
2019-04-22T02:06:07.545Z,11.96
2019-04-22T02:07:09.354Z,12.01
2019-04-22T02:08:15.351Z,11.89
2019-04-22T02:09:17.411Z,11.78
2019-04-22T02:10:12.244Z,11.49
2019-04-22T02:11:07.746Z,11.97
2019-04-22T02:13:09.189Z,12.45
2019-04-22T02:14:11.564Z,12.42
2019-04-22T02:15:12.037Z,12.81
2019-04-22T02:16:15.170Z,13.02
2019-04-22T02:17:10.884Z,12.95
2019-04-22T02:18:18.038Z,12.95
2019-04-22T02:19:13.168Z,13.02
2019-04-22T02:20:27.013Z,12.84
2019-04-22T02:21:10.631Z,12.57
2019-04-22T02:22:11.593Z,12.41
2019-04-22T02:23:30.565Z,12.19
2019-04-22T02:24:13.927Z,12.26
2019-04-22T02:25:08.474Z,12.44
2019-04-22T02:26:25.539Z,12.15
2019-04-22T02:27:10.717Z,11.89
2019-04-22T02:28:16.793Z,11.65
2019-04-22T02:29:10.511Z,11.50
2019-04-22T02:30:05.463Z,11.77
2019-04-22T02:32:19.646Z,11.72
2019-04-22T02:33:46.299Z,11.53
2019-04-22T02:35:45.922Z,11.39
2019-04-22T02:36:30.381Z,11.31
2019-04-22T02:37:13.581Z,11.41
2019-04-22T02:38:20.015Z,11.28
2019-04-22T02:39:15.779Z,11.01
2019-04-22T02:40:09.231Z,11.16
2019-04-22T02:41:22.885Z,11.28
2019-04-22T02:43:28.714Z,11.24
2019-04-22T02:45:07.637Z,11.21
2019-04-22T02:47:18.388Z,11.19
2019-04-22T02:48:30.179Z,11.11
2019-04-22T02:50:08.878Z,11.03
2019-04-22T02:51:16.447Z,11.01
2019-04-22T02:52:20.319Z,11.39
2019-04-22T02:53:17.526Z,11.47
2019-04-22T02:54:36.453Z,11.31
2019-04-22T02:55:45.993Z,11.01
2019-04-22T02:56:27.262Z,11.02
2019-04-22T02:57:25.154Z,10.96
2019-04-22T02:58:12.662Z,10.88
2019-04-22T03:00:35.801Z,10.86
2019-04-22T03:01:23.487Z,10.74
2019-04-22T03:02:13.712Z,10.76
2019-04-22T03:03:28.064Z,10.78
2019-04-22T03:05:19.456Z,11.07
2019-04-22T03:07:12.726Z,11.13
2019-04-22T03:08:14.871Z,11.07
2019-04-22T03:12:21.549Z,10.68
2019-04-22T03:13:23.397Z,10.63
2019-04-22T03:15:07.735Z,10.76
2019-04-22T03:17:15.912Z,10.66
2019-04-22T03:18:22.078Z,10.68
2019-04-22T03:20:11.041Z,10.65
2019-04-22T03:21:14.644Z,10.63
2019-04-22T03:25:42.380Z,10.66
2019-04-22T03:26:18.465Z,10.71
2019-04-22T03:27:16.310Z,10.70
2019-04-22T03:28:09.686Z,10.63
2019-04-22T03:29:37.204Z,10.71
2019-04-22T03:30:41.607Z,10.68
2019-04-22T03:31:26.153Z,10.78
2019-04-22T03:32:40.674Z,10.88
2019-04-22T03:36:42.175Z,10.60
2019-04-22T03:37:27.442Z,10.53
2019-04-22T03:38:20.240Z,10.71
2019-04-22T03:41:27.193Z,10.88
2019-04-22T03:43:33.757Z,10.73
2019-04-22T03:46:28.232Z,10.71
2019-04-22T03:49:29.008Z,10.83
2019-04-22T03:50:22.691Z,10.81
2019-04-22T03:51:27.643Z,10.86
2019-04-22T03:52:16.258Z,10.83
2019-04-22T03:53:21.237Z,10.81
2019-04-22T03:54:29.041Z,10.88
2019-04-22T03:55:18.110Z,10.96
2019-04-22T03:56:36.562Z,10.88
2019-04-22T03:58:01.804Z,10.91
2019-04-22T03:59:26.869Z,10.84
2019-04-22T04:00:32.591Z,10.83
2019-04-22T04:01:30.574Z,10.84
2019-04-22T04:02:30.779Z,10.86
2019-04-22T04:03:12.072Z,10.73
2019-04-22T04:04:32.634Z,10.66
2019-04-22T04:06:20.752Z,10.28
2019-04-22T04:27:43.727Z,9.97
2019-04-22T04:29:49.206Z,9.79
2019-04-22T04:33:35.984Z,9.58
2019-04-22T04:34:47.221Z,9.45
2019-04-22T04:36:35.633Z,9.85
2019-04-22T04:37:42.601Z,9.96
2019-04-22T04:38:28.922Z,9.66
2019-04-22T04:41:48.232Z,10.21
2019-04-22T04:43:26.294Z,10.76
2019-04-22T04:44:48.905Z,10.80
2019-04-22T04:45:38.537Z,10.94
2019-04-22T04:46:39.980Z,10.68
2019-04-22T04:47:43.992Z,10.83
2019-04-22T04:48:32.897Z,10.94
2019-04-22T04:50:25.212Z,11.11
2019-04-22T04:51:32.854Z,11.27
2019-04-22T04:52:39.075Z,11.29
2019-04-22T04:54:30.248Z,11.34
2019-04-22T04:55:35.065Z,11.46
2019-04-22T04:56:36.278Z,11.44
2019-04-22T04:57:40.992Z,11.35
2019-04-22T04:58:36.702Z,11.56
2019-04-22T04:59:38.404Z,11.54
2019-04-22T05:01:36.054Z,11.35
2019-04-22T05:02:39.982Z,11.21
2019-04-22T05:03:39.959Z,11.41
2019-04-22T05:05:28.813Z,11.38
2019-04-22T05:06:49.102Z,11.39
2019-04-22T05:08:40.635Z,11.80
2019-04-22T05:11:40.690Z,11.80
2019-04-22T05:13:32.912Z,12.12
2019-04-22T05:14:24.539Z,12.13
2019-04-22T05:15:24.480Z,12.21
2019-04-22T05:17:27.593Z,12.85
2019-04-22T05:18:33.066Z,12.97
2019-04-22T05:19:25.719Z,13.74
2019-04-22T05:22:21.103Z,15.12
2019-04-22T05:23:31.999Z,16.33
2019-04-22T05:24:28.473Z,17.13
2019-04-22T05:25:25.463Z,18.10
2019-04-22T05:26:27.695Z,18.49
2019-04-22T05:27:28.074Z,18.97
2019-04-22T05:28:23.979Z,19.11
2019-04-22T05:29:26.646Z,19.68
2019-04-22T05:31:24.377Z,19.70
2019-04-22T05:32:24.638Z,20.05
2019-04-22T05:33:33.211Z,20.39
2019-04-22T05:35:26.690Z,20.13
2019-04-22T05:36:28.330Z,20.49
2019-04-22T05:37:27.527Z,20.58
2019-04-22T05:38:33.152Z,20.54
2019-04-22T05:39:21.301Z,20.41
2019-04-22T05:41:32.351Z,19.83
2019-04-22T05:42:37.505Z,19.94
2019-04-22T05:43:27.369Z,18.99
2019-04-22T05:44:29.582Z,18.40
2019-04-22T05:45:29.524Z,18.02
2019-04-22T05:46:24.900Z,17.82
2019-04-22T05:47:25.854Z,17.99
2019-04-22T05:48:25.788Z,18.28
2019-04-22T05:49:27.173Z,18.54
2019-04-22T05:50:23.916Z,20.18
2019-04-22T05:51:31.392Z,20.87
2019-04-22T05:52:26.663Z,20.56
2019-04-22T05:53:30.894Z,21.02
2019-04-22T05:54:27.452Z,21.08
2019-04-22T05:55:30.432Z,19.88
2019-04-22T05:56:34.742Z,19.53
2019-04-22T05:57:24.727Z,19.06
2019-04-22T05:58:26.987Z,18.61
2019-04-22T05:59:28.796Z,18.58
2019-04-22T06:00:37.061Z,18.47
2019-04-22T06:02:31.392Z,17.74
2019-04-22T06:03:32.519Z,17.78
2019-04-22T06:04:25.818Z,18.07
2019-04-22T06:05:24.979Z,18.83
2019-04-22T06:06:22.730Z,20.21
2019-04-22T06:07:29.465Z,20.91
2019-04-22T06:08:23.255Z,21.05
2019-04-22T06:09:47.195Z,21.17
2019-04-22T06:10:26.087Z,21.72
2019-04-22T06:11:28.435Z,21.91
2019-04-22T06:12:23.466Z,22.04
2019-04-22T06:13:18.137Z,21.83
2019-04-22T06:14:20.104Z,21.50
2019-04-22T06:15:24.116Z,21.54
2019-04-22T06:16:25.937Z,21.41
2019-04-22T06:17:24.472Z,21.21
2019-04-22T06:18:27.070Z,21.46
2019-04-22T06:19:24.828Z,21.51
2019-04-22T06:20:21.949Z,21.61
2019-04-22T06:21:28.170Z,20.74
2019-04-22T06:25:47.882Z,17.10
2019-04-22T06:27:30.803Z,17.00
2019-04-22T06:28:35.274Z,16.83
2019-04-22T06:29:26.712Z,16.50
2019-04-22T06:30:42.602Z,16.20
2019-04-22T06:31:37.308Z,16.22
2019-04-22T06:33:30.217Z,15.92
2019-04-22T06:34:30.582Z,16.15
2019-04-22T06:35:34.150Z,16.07
2019-04-22T06:36:29.293Z,16.11
2019-04-22T06:37:24.843Z,16.06
2019-04-22T06:39:29.473Z,15.85
2019-04-22T06:40:27.441Z,15.60
2019-04-22T06:41:51.670Z,15.72
2019-04-22T06:42:28.403Z,15.81
2019-04-22T06:43:30.132Z,15.67
2019-04-22T06:45:48.874Z,15.63
2019-04-22T06:46:28.498Z,15.64
2019-04-22T06:47:40.076Z,15.78
2019-04-22T06:48:24.047Z,15.60
2019-04-22T06:49:33.434Z,15.76
2019-04-22T06:50:32.210Z,15.52
2019-04-22T06:51:30.950Z,15.57
2019-04-22T06:52:22.661Z,15.46
2019-04-22T06:53:32.747Z,15.43
2019-04-22T06:54:28.404Z,15.54
2019-04-22T06:55:29.789Z,15.61
2019-04-22T06:56:22.378Z,15.64
2019-04-22T06:57:27.257Z,15.39
2019-04-22T06:58:20.231Z,15.57
2019-04-22T06:59:30.134Z,15.54
2019-04-22T07:00:24.587Z,15.52
2019-04-22T07:02:32.089Z,15.42
2019-04-22T07:04:22.495Z,15.46
2019-04-22T07:05:29.726Z,15.46
2019-04-22T07:06:35.384Z,15.38
2019-04-22T07:07:23.774Z,15.42
2019-04-22T07:08:59.510Z,15.46
2019-04-22T07:09:42.761Z,15.39
2019-04-22T07:10:40.463Z,15.36
2019-04-22T07:11:23.744Z,15.42
2019-04-22T07:13:27.776Z,15.39
2019-04-22T07:14:22.473Z,15.45
2019-04-22T07:15:44.237Z,15.45
2019-04-22T07:17:39.304Z,15.41
2019-04-22T07:18:31.203Z,15.28
2019-04-22T07:19:27.885Z,15.36
2019-04-22T07:21:29.305Z,15.56
2019-04-22T07:22:27.819Z,15.64
2019-04-22T07:24:40.679Z,15.61
2019-04-22T07:25:23.444Z,15.70
2019-04-22T07:26:29.197Z,15.59
2019-04-22T07:27:40.416Z,15.63
2019-04-22T07:28:31.984Z,15.59
2019-04-22T07:30:22.239Z,15.49
2019-04-22T07:31:15.815Z,15.46
2019-04-22T07:34:31.073Z,15.93
2019-04-22T07:35:28.872Z,16.06
2019-04-22T07:36:52.415Z,15.92
2019-04-22T07:37:31.732Z,15.93
2019-04-22T07:38:28.291Z,16.06
2019-04-22T07:40:32.473Z,16.12
2019-04-22T07:41:28.768Z,16.04
2019-04-22T07:42:24.606Z,16.16
2019-04-22T07:44:30.937Z,16.09
2019-04-22T07:45:26.643Z,16.16
2019-04-22T07:46:28.708Z,16.48
2019-04-22T07:47:38.403Z,16.34
2019-04-22T07:48:33.937Z,16.34
2019-04-22T07:49:26.753Z,16.34
2019-04-22T07:50:39.506Z,16.35
2019-04-22T07:51:28.257Z,16.48
2019-04-22T07:52:22.990Z,16.60
2019-04-22T07:53:21.877Z,16.68
2019-04-22T07:54:25.839Z,16.74
2019-04-22T07:55:24.426Z,16.59
2019-04-22T07:56:24.280Z,16.75
2019-04-22T07:57:27.777Z,16.89
2019-04-22T07:58:25.734Z,16.89
2019-04-22T08:00:23.086Z,17.06
2019-04-22T08:01:26.674Z,16.99
2019-04-22T08:02:26.438Z,17.03
2019-04-22T08:03:32.347Z,17.08
2019-04-22T08:04:35.936Z,17.17
2019-04-22T08:05:30.382Z,17.33
2019-04-22T08:06:23.606Z,17.23
2019-04-22T08:07:24.100Z,17.17
2019-04-22T08:08:25.771Z,17.04
2019-04-22T08:09:33.572Z,17.17
2019-04-22T08:10:29.843Z,17.20
2019-04-22T08:12:29.647Z,17.35
2019-04-22T08:13:24.770Z,17.43
2019-04-22T08:14:32.909Z,17.46
2019-04-22T08:15:27.985Z,17.32
2019-04-22T08:16:23.571Z,17.46
2019-04-22T08:17:44.807Z,17.62
2019-04-22T08:18:28.367Z,17.69
2019-04-22T08:21:22.354Z,17.76
2019-04-22T08:22:21.428Z,17.62
2019-04-22T08:24:29.287Z,17.73
2019-04-22T08:25:29.732Z,17.79
2019-04-22T08:26:27.500Z,17.95
2019-04-22T08:27:25.322Z,18.00
2019-04-22T08:28:31.984Z,17.95
2019-04-22T08:29:32.217Z,17.89
2019-04-22T08:30:28.623Z,17.95
2019-04-22T08:31:28.298Z,17.94
2019-04-22T08:32:28.411Z,17.95
2019-04-22T08:33:29.369Z,18.03
2019-04-22T08:34:27.448Z,18.06
2019-04-22T08:35:29.360Z,18.03
2019-04-22T08:36:26.333Z,18.13
2019-04-22T08:38:36.801Z,18.21
2019-04-22T08:39:36.180Z,18.28
2019-04-22T08:40:28.835Z,18.39
2019-04-22T08:41:33.112Z,18.49
2019-04-22T08:42:34.705Z,18.49
2019-04-22T08:43:30.767Z,18.50
2019-04-22T08:44:39.148Z,18.49
2019-04-22T08:45:33.380Z,18.47
2019-04-22T08:46:35.198Z,18.58
2019-04-22T08:47:42.265Z,18.59
2019-04-22T08:48:24.852Z,18.64
2019-04-22T08:49:30.666Z,18.68
2019-04-22T08:50:39.517Z,18.76
2019-04-22T08:51:35.630Z,18.68
2019-04-22T08:52:27.537Z,18.68
2019-04-22T08:53:26.458Z,18.90
2019-04-22T08:54:26.016Z,19.08
2019-04-22T08:55:29.289Z,19.23
2019-04-22T08:56:43.692Z,19.24
2019-04-22T08:57:35.011Z,19.06
2019-04-22T08:59:22.223Z,18.97
2019-04-22T09:00:34.333Z,19.15
2019-04-22T09:02:25.871Z,19.63
2019-04-22T09:03:24.428Z,19.57
2019-04-22T09:04:16.327Z,19.69
2019-04-22T09:05:42.417Z,19.69
2019-04-22T09:07:36.933Z,19.88
2019-04-22T09:08:26.296Z,19.54
2019-04-22T09:09:27.231Z,19.36
2019-04-22T09:10:24.165Z,19.76
2019-04-22T09:11:28.442Z,19.83
2019-04-22T09:12:34.803Z,19.94
2019-04-22T09:13:30.167Z,19.84
2019-04-22T09:14:32.431Z,19.83
2019-04-22T09:15:27.853Z,20.09
2019-04-22T09:16:34.734Z,19.94
2019-04-22T09:17:35.088Z,20.06
2019-04-22T09:18:32.927Z,20.27
2019-04-22T09:19:24.072Z,20.12
2019-04-22T09:20:26.014Z,20.30
2019-04-22T09:21:38.878Z,20.25
2019-04-22T09:22:21.838Z,20.02
2019-04-22T09:24:23.312Z,20.34
2019-04-22T09:25:24.134Z,20.20
2019-04-22T09:26:30.647Z,20.28
2019-04-22T09:28:24.475Z,20.39
2019-04-22T09:29:32.602Z,20.23
2019-04-22T09:30:30.594Z,20.12
2019-04-22T09:31:23.438Z,20.09
2019-04-22T09:32:26.443Z,19.94
2019-04-22T09:33:28.936Z,19.95
2019-04-22T09:34:29.316Z,20.49
2019-04-22T09:35:26.589Z,20.59
2019-04-22T09:36:29.556Z,20.31
2019-04-22T09:37:28.956Z,20.12
2019-04-22T09:39:31.263Z,20.35
2019-04-22T09:40:23.694Z,20.61
2019-04-22T09:41:27.199Z,20.46
2019-04-22T09:42:24.701Z,20.46
2019-04-22T09:43:31.601Z,20.23
2019-04-22T09:44:29.838Z,20.51
2019-04-22T09:45:21.373Z,20.56
2019-04-22T09:46:30.771Z,20.54
2019-04-22T09:47:24.918Z,20.79
2019-04-22T09:48:29.742Z,20.90
2019-04-22T09:49:30.743Z,20.81
2019-04-22T09:50:33.271Z,20.95
2019-04-22T09:51:25.313Z,21.09
2019-04-22T09:52:22.481Z,21.26
2019-04-22T09:53:30.080Z,21.24
2019-04-22T09:54:29.690Z,20.89
2019-04-22T09:55:26.616Z,20.99
2019-04-22T09:56:23.833Z,21.06
2019-04-22T09:57:24.971Z,21.05
2019-04-22T09:58:26.549Z,21.19
2019-04-22T09:59:30.067Z,21.20
2019-04-22T10:00:22.362Z,21.23
2019-04-22T10:02:34.465Z,21.11
2019-04-22T10:03:34.219Z,21.26
2019-04-22T10:04:27.290Z,21.38
2019-04-22T10:05:28.534Z,21.23
2019-04-22T10:06:38.145Z,21.41
2019-04-22T10:07:27.226Z,21.36
2019-04-22T10:08:33.373Z,21.35
2019-04-22T10:09:42.621Z,21.26
2019-04-22T10:10:22.169Z,21.48
2019-04-22T10:12:28.040Z,21.38
2019-04-22T10:13:32.709Z,21.27
2019-04-22T10:14:29.057Z,21.29
2019-04-22T10:15:26.749Z,21.27
2019-04-22T10:16:31.399Z,21.26
2019-04-22T10:17:26.056Z,21.35
2019-04-22T10:18:26.243Z,21.26
2019-04-22T10:19:26.348Z,21.09
2019-04-22T10:20:28.161Z,21.26
2019-04-22T10:21:35.298Z,21.36
2019-04-22T10:22:49.966Z,21.53
2019-04-22T10:23:25.041Z,21.63
2019-04-22T10:24:18.860Z,21.75
2019-04-22T10:25:25.032Z,21.71
2019-04-22T10:26:30.073Z,21.71
2019-04-22T10:27:26.941Z,21.82
2019-04-22T10:28:35.676Z,21.63
2019-04-22T10:29:24.620Z,21.74
2019-04-22T10:30:37.166Z,21.76
2019-04-22T10:31:31.011Z,21.75
2019-04-22T10:32:27.976Z,21.92
2019-04-22T10:33:24.003Z,21.88
2019-04-22T10:34:11.756Z,22.17
2019-04-22T10:35:04.983Z,22.10
2019-04-22T10:35:59.476Z,22.14
2019-04-22T10:37:04.351Z,22.27
2019-04-22T10:38:00.673Z,22.17
2019-04-22T10:39:00.118Z,22.37
2019-04-22T10:40:03.952Z,22.28
2019-04-22T10:41:00.838Z,22.50
2019-04-22T10:41:59.488Z,22.47
2019-04-22T10:42:59.497Z,22.39
2019-04-22T10:43:59.513Z,22.43
2019-04-22T10:45:00.975Z,22.34
2019-04-22T10:45:59.876Z,22.50
2019-04-22T10:47:00.072Z,22.35
2019-04-22T10:48:01.426Z,22.46
2019-04-22T10:49:00.026Z,22.49
2019-04-22T10:50:00.668Z,22.46
2019-04-22T10:51:00.918Z,22.47
2019-04-22T10:52:00.421Z,22.37
2019-04-22T10:52:59.530Z,22.38
2019-04-22T10:53:59.760Z,22.46
2019-04-22T10:54:59.538Z,22.39
2019-04-22T10:56:00.850Z,22.39
2019-04-22T10:57:00.753Z,22.44
2019-04-22T10:57:59.537Z,22.38
2019-04-22T10:59:00.528Z,22.43
2019-04-22T11:00:00.697Z,22.57
2019-04-22T11:01:00.198Z,22.44
2019-04-22T11:01:59.553Z,22.50
2019-04-22T11:03:00.096Z,22.56
2019-04-22T11:03:59.662Z,22.64
2019-04-22T11:04:59.561Z,22.60
2019-04-22T11:06:01.134Z,22.65
2019-04-22T11:07:04.583Z,22.72
2019-04-22T11:08:04.893Z,22.74
2019-04-22T11:09:04.155Z,22.57
2019-04-22T11:10:17.860Z,22.82
2019-04-22T11:11:14.101Z,22.89
2019-04-22T11:12:06.467Z,22.92
2019-04-22T11:13:00.841Z,23.05
2019-04-22T11:14:00.098Z,23.08
2019-04-22T11:15:00.119Z,22.87
2019-04-22T11:16:00.537Z,22.89
2019-04-22T11:17:02.214Z,23.09
2019-04-22T11:17:59.796Z,23.11
2019-04-22T11:18:59.608Z,23.23
2019-04-22T11:19:59.610Z,23.20
2019-04-22T11:20:59.851Z,23.19
2019-04-22T11:22:07.709Z,23.09
2019-04-22T11:23:00.606Z,23.19
2019-04-22T11:24:00.715Z,23.22
2019-04-22T11:25:01.217Z,23.15
2019-04-22T11:25:59.734Z,23.23
2019-04-22T11:27:01.021Z,23.47
2019-04-22T11:28:00.003Z,23.27
2019-04-22T11:28:59.636Z,23.34
2019-04-22T11:29:59.659Z,23.39
2019-04-22T11:31:00.794Z,23.47
2019-04-22T11:32:00.136Z,23.49
2019-04-22T11:33:00.444Z,23.50
2019-04-22T11:34:00.787Z,23.70
2019-04-22T11:34:59.660Z,23.77
2019-04-22T11:35:59.971Z,23.58
2019-04-22T11:37:00.927Z,23.61
2019-04-22T11:38:00.979Z,23.82
2019-04-22T11:39:02.511Z,24.04
2019-04-22T11:40:06.896Z,23.98
2019-04-22T11:41:01.401Z,24.32
2019-04-22T11:42:00.379Z,24.37
2019-04-22T11:42:59.988Z,24.08
2019-04-22T11:44:01.187Z,24.24
2019-04-22T11:44:59.703Z,24.22
2019-04-22T11:45:59.717Z,24.31
2019-04-22T11:47:01.417Z,24.35
2019-04-22T11:47:59.719Z,24.41
2019-04-22T11:49:00.274Z,24.42
2019-04-22T11:49:59.802Z,24.02
2019-04-22T11:51:00.124Z,24.17
2019-04-22T11:52:00.990Z,24.14
2019-04-22T11:53:00.748Z,24.22
2019-04-22T11:54:00.870Z,24.27
2019-04-22T11:55:01.078Z,24.32
2019-04-22T11:56:00.589Z,24.23
2019-04-22T11:57:01.011Z,24.14
2019-04-22T11:58:00.942Z,24.22
2019-04-22T11:59:00.659Z,24.13
2019-04-22T12:00:00.996Z,24.19
2019-04-22T12:01:00.988Z,24.31
2019-04-22T12:02:00.641Z,24.12
2019-04-22T12:03:00.869Z,24.20
2019-04-22T12:03:59.980Z,24.16
2019-04-22T12:04:59.791Z,23.97
2019-04-22T12:05:59.883Z,24.07
2019-04-22T12:07:00.121Z,24.13
2019-04-22T12:07:59.817Z,24.38
2019-04-22T12:08:59.808Z,24.69
2019-04-22T12:10:00.936Z,24.47
2019-04-22T12:11:03.614Z,24.59
2019-04-22T12:12:00.060Z,24.69
2019-04-22T12:12:59.962Z,24.56
2019-04-22T12:14:00.218Z,24.38
2019-04-22T12:15:00.754Z,24.56
2019-04-22T12:16:00.946Z,24.50
2019-04-22T12:16:59.852Z,24.50
2019-04-22T12:18:01.405Z,24.52
2019-04-22T12:19:00.884Z,24.44
2019-04-22T12:20:00.212Z,24.23
2019-04-22T12:21:01.238Z,24.27
2019-04-22T12:22:00.684Z,24.52
2019-04-22T12:23:01.147Z,24.37
2019-04-22T12:24:01.132Z,24.41
2019-04-22T12:25:00.614Z,24.44
2019-04-22T12:26:05.818Z,24.45
2019-04-22T12:27:00.315Z,24.47
2019-04-22T12:28:01.104Z,24.35
2019-04-22T12:28:59.904Z,24.38
2019-04-22T12:30:00.839Z,24.44
2019-04-22T12:30:59.919Z,24.34
2019-04-22T12:31:59.929Z,24.52
2019-04-22T12:33:00.210Z,24.60
2019-04-22T12:34:01.287Z,24.69
2019-04-22T12:34:59.949Z,24.69
2019-04-22T12:36:00.419Z,24.63
2019-04-22T12:37:00.472Z,24.56
2019-04-22T12:38:06.125Z,24.41
2019-04-22T12:38:59.948Z,24.52
2019-04-22T12:40:00.393Z,24.60
2019-04-22T12:41:04.378Z,24.71
2019-04-22T12:42:00.335Z,24.83
2019-04-22T12:43:04.163Z,24.95
2019-04-22T12:44:00.980Z,25.02
2019-04-22T12:45:00.445Z,25.00
2019-04-22T12:46:00.478Z,25.02
2019-04-22T12:47:01.748Z,24.98
2019-04-22T12:48:00.209Z,24.90
2019-04-22T12:49:00.326Z,24.76
2019-04-22T12:50:08.994Z,24.73
2019-04-22T12:51:00.903Z,24.75
2019-04-22T12:52:01.139Z,24.79
2019-04-22T12:53:06.822Z,24.90
2019-04-22T12:54:01.359Z,24.91
2019-04-22T12:55:01.321Z,24.83
2019-04-22T12:56:01.244Z,24.92
2019-04-22T12:57:00.035Z,25.06
2019-04-22T12:58:01.296Z,24.97
2019-04-22T12:59:01.350Z,25.07
2019-04-22T13:00:01.458Z,24.94
2019-04-22T13:01:01.235Z,24.92
2019-04-22T13:02:00.673Z,24.97
2019-04-22T13:03:01.050Z,24.85
2019-04-22T13:04:06.932Z,24.83
2019-04-22T13:05:00.668Z,24.88
2019-04-22T13:06:01.486Z,24.95
2019-04-22T13:07:00.089Z,25.00
2019-04-22T13:08:00.234Z,24.87
2019-04-22T13:09:00.355Z,24.82
2019-04-22T13:10:01.437Z,24.69
2019-04-22T13:11:06.800Z,24.77
2019-04-22T13:12:01.230Z,24.77
2019-04-22T13:13:00.867Z,24.79
2019-04-22T13:14:00.935Z,24.83
2019-04-22T13:15:01.499Z,24.85
2019-04-22T13:16:00.144Z,24.79
2019-04-22T13:17:00.136Z,24.68
2019-04-22T13:18:10.634Z,24.77
2019-04-22T13:19:05.714Z,24.80
2019-04-22T13:20:00.449Z,24.82
2019-04-22T13:21:00.441Z,24.87
2019-04-22T13:22:00.951Z,24.83
2019-04-22T13:23:00.167Z,24.85
2019-04-22T13:24:00.177Z,24.94
2019-04-22T13:25:01.984Z,24.90
2019-04-22T13:26:00.944Z,24.94
2019-04-22T13:27:01.235Z,24.94
2019-04-22T13:28:00.983Z,24.91
2019-04-22T13:29:01.048Z,24.98
2019-04-22T13:30:08.259Z,24.97
2019-04-22T13:32:04.934Z,25.05
2019-04-22T13:33:05.148Z,25.09
2019-04-22T13:35:08.861Z,25.24
2019-04-22T13:36:08.198Z,25.28
2019-04-22T13:38:12.956Z,25.19
2019-04-22T13:39:13.255Z,25.28
2019-04-22T13:41:26.428Z,25.24
2019-04-22T13:42:19.953Z,25.25
2019-04-22T13:44:20.845Z,25.19
2019-04-22T13:45:20.195Z,25.30
2019-04-22T13:46:20.192Z,25.24
2019-04-22T13:47:35.048Z,25.10
2019-04-22T13:48:38.794Z,25.27
2019-04-22T13:49:51.378Z,25.28
2019-04-22T13:53:10.618Z,25.34
2019-04-22T13:55:45.337Z,25.34
2019-04-22T13:56:46.303Z,25.34
2019-04-22T13:57:41.417Z,25.30
2019-04-22T13:58:35.469Z,25.57
2019-04-22T13:59:30.158Z,25.54
2019-04-22T14:00:20.542Z,25.44
2019-04-22T14:01:20.548Z,25.38
2019-04-22T14:02:20.272Z,25.28
2019-04-22T14:03:20.531Z,25.31
2019-04-22T14:04:20.587Z,25.34
2019-04-22T14:05:20.290Z,25.25
2019-04-22T14:06:20.657Z,25.17
2019-04-22T14:07:20.892Z,25.27
2019-04-22T14:08:20.302Z,25.20
2019-04-22T14:09:20.470Z,25.22
2019-04-22T14:10:20.650Z,25.44
2019-04-22T14:11:28.711Z,25.43
2019-04-22T14:12:21.719Z,25.46
2019-04-22T14:13:21.407Z,25.46
2019-04-22T14:14:22.014Z,25.57
2019-04-22T14:15:20.341Z,25.72
2019-04-22T14:16:20.346Z,25.42
2019-04-22T14:17:20.931Z,25.38
2019-04-22T14:18:21.122Z,25.34
2019-04-22T14:19:20.428Z,25.31
2019-04-22T14:20:21.558Z,25.42
2019-04-22T14:21:21.063Z,25.38
2019-04-22T14:22:20.380Z,25.35
2019-04-22T14:23:20.558Z,25.31
2019-04-22T14:24:21.606Z,25.20
2019-04-22T14:25:20.756Z,25.31
2019-04-22T14:26:20.400Z,25.20
2019-04-22T14:27:32.038Z,25.28
2019-04-22T14:28:22.962Z,25.24
2019-04-22T14:29:21.753Z,25.09
2019-04-22T14:30:20.865Z,25.16
2019-04-22T14:31:20.484Z,25.06
2019-04-22T14:32:27.050Z,24.98
2019-04-22T14:33:20.482Z,25.07
2019-04-22T14:34:20.785Z,25.06
2019-04-22T14:35:20.862Z,24.95
2019-04-22T14:36:21.382Z,24.95
2019-04-22T14:37:20.556Z,25.02
2019-04-22T14:38:21.729Z,24.92
2019-04-22T14:39:21.872Z,25.00
2019-04-22T14:40:22.522Z,24.94
2019-04-22T14:41:35.839Z,25.02
2019-04-22T14:42:39.530Z,24.94
2019-04-22T14:43:52.707Z,24.90
2019-04-22T14:45:15.241Z,24.92
2019-04-22T14:45:53.428Z,24.95
2019-04-22T14:46:53.486Z,24.95
2019-04-22T14:47:49.357Z,24.92
2019-04-22T14:48:47.715Z,24.80
2019-04-22T14:49:42.135Z,24.88
2019-04-22T14:50:42.391Z,24.83
2019-04-22T14:51:41.827Z,24.90
2019-04-22T14:52:45.977Z,24.85
2019-04-22T14:53:41.147Z,24.95
2019-04-22T14:54:34.840Z,24.95
2019-04-22T14:55:25.075Z,24.87